sensor_id;sensor_type;location;lat;lon;timestamp;pressure;altitude;pressure_sealevel;temperature;humidity
56330;BME280;42236;48.058;10.632;2023-02-22T00:00:48;94585.69;;;3.18;76.84
56330;BME280;42236;48.058;10.632;2023-02-22T00:03:34;94587.84;;;3.16;76.94
56330;BME280;42236;48.058;10.632;2023-02-22T00:06:21;94591.31;;;3.16;76.45
56330;BME280;42236;48.058;10.632;2023-02-22T00:09:09;94587.34;;;3.14;76.99
56330;BME280;42236;48.058;10.632;2023-02-22T00:11:55;94581.53;;;3.12;77.03
56330;BME280;42236;48.058;10.632;2023-02-22T00:14:40;94575.13;;;3.13;76.71
56330;BME280;42236;48.058;10.632;2023-02-22T00:17:26;94575.41;;;3.11;76.74
56330;BME280;42236;48.058;10.632;2023-02-22T00:20:15;94576.22;;;3.12;76.40
56330;BME280;42236;48.058;10.632;2023-02-22T00:23:06;94581.13;;;3.05;76.60
56330;BME280;42236;48.058;10.632;2023-02-22T00:25:52;94587.03;;;3.02;76.67
56330;BME280;42236;48.058;10.632;2023-02-22T00:28:38;94579.03;;;3.02;76.19
56330;BME280;42236;48.058;10.632;2023-02-22T00:31:24;94580.91;;;3.01;76.35
56330;BME280;42236;48.058;10.632;2023-02-22T00:34:09;94578.06;;;2.97;76.52
56330;BME280;42236;48.058;10.632;2023-02-22T00:36:55;94581.63;;;2.93;76.78
56330;BME280;42236;48.058;10.632;2023-02-22T00:39:41;94583.50;;;2.92;76.74
56330;BME280;42236;48.058;10.632;2023-02-22T00:42:26;94578.72;;;2.89;76.72
56330;BME280;42236;48.058;10.632;2023-02-22T00:45:15;94582.50;;;2.88;77.04
56330;BME280;42236;48.058;10.632;2023-02-22T00:48:02;94581.38;;;2.89;76.86
56330;BME280;42236;48.058;10.632;2023-02-22T00:50:48;94575.00;;;2.90;76.54
56330;BME280;42236;48.058;10.632;2023-02-22T00:53:34;94575.00;;;2.90;76.22
56330;BME280;42236;48.058;10.632;2023-02-22T00:56:20;94578.72;;;2.89;76.47
56330;BME280;42236;48.058;10.632;2023-02-22T00:59:06;94571.59;;;2.85;76.48
56330;BME280;42236;48.058;10.632;2023-02-22T01:01:52;94572.63;;;2.89;75.99
56330;BME280;42236;48.058;10.632;2023-02-22T01:04:38;94578.72;;;2.89;76.15
56330;BME280;42236;48.058;10.632;2023-02-22T01:07:23;94572.34;;;2.90;75.86
56330;BME280;42236;48.058;10.632;2023-02-22T01:10:10;94578.16;;;2.92;75.55
56330;BME280;42236;48.058;10.632;2023-02-22T01:12:57;94570.22;;;2.87;75.52
56330;BME280;42236;48.058;10.632;2023-02-22T01:15:43;94570.91;;;2.79;75.49
56330;BME280;42236;48.058;10.632;2023-02-22T01:18:29;94571.59;;;2.71;75.58
56330;BME280;42236;48.058;10.632;2023-02-22T01:21:15;94560.53;;;2.64;75.97
56330;BME280;42236;48.058;10.632;2023-02-22T01:24:00;94559.53;;;2.60;76.05
56330;BME280;42236;48.058;10.632;2023-02-22T01:26:51;94560.91;;;2.57;76.16
56330;BME280;42236;48.058;10.632;2023-02-22T01:29:36;94561.50;;;2.54;75.88
56330;BME280;42236;48.058;10.632;2023-02-22T01:32:23;94559.69;;;2.49;75.72
56330;BME280;42236;48.058;10.632;2023-02-22T01:35:13;94556.09;;;2.40;75.87
56330;BME280;42236;48.058;10.632;2023-02-22T01:37:59;94555.41;;;2.34;76.03
56330;BME280;42236;48.058;10.632;2023-02-22T01:40:47;94546.69;;;2.29;75.94
56330;BME280;42236;48.058;10.632;2023-02-22T01:43:33;94551.50;;;2.27;76.15
56330;BME280;42236;48.058;10.632;2023-02-22T01:46:28;94544.91;;;2.24;76.29
56330;BME280;42236;48.058;10.632;2023-02-22T01:49:14;94550.59;;;2.18;76.20
56330;BME280;42236;48.058;10.632;2023-02-22T01:52:02;94555.00;;;2.08;76.18
56330;BME280;42236;48.058;10.632;2023-02-22T01:54:56;94556.13;;;2.02;76.36
56330;BME280;42236;48.058;10.632;2023-02-22T01:57:43;94560.25;;;1.95;76.84
56330;BME280;42236;48.058;10.632;2023-02-22T02:00:28;94552.53;;;1.93;76.85
56330;BME280;42236;48.058;10.632;2023-02-22T02:03:19;94549.41;;;1.91;77.26
56330;BME280;42236;48.058;10.632;2023-02-22T02:06:11;94557.38;;;1.91;77.30
56330;BME280;42236;48.058;10.632;2023-02-22T02:09:33;94549.94;;;1.88;78.02
56330;BME280;42236;48.058;10.632;2023-02-22T02:12:21;94551.31;;;1.85;77.50
56330;BME280;42236;48.058;10.632;2023-02-22T02:18:04;94544.94;;;1.86;77.29
56330;BME280;42236;48.058;10.632;2023-02-22T02:30:18;94546.22;;;1.89;76.93
56330;BME280;42236;48.058;10.632;2023-02-22T02:33:17;94539.69;;;1.81;76.56
56330;BME280;42236;48.058;10.632;2023-02-22T02:39:16;94543.31;;;1.66;76.38
56330;BME280;42236;48.058;10.632;2023-02-22T02:42:07;94548.50;;;1.58;76.82
56330;BME280;42236;48.058;10.632;2023-02-22T02:44:59;94545.59;;;1.54;77.25
56330;BME280;42236;48.058;10.632;2023-02-22T02:47:52;94547.88;;;1.42;78.69
56330;BME280;42236;48.058;10.632;2023-02-22T02:50:46;94542.91;;;1.35;79.24
56330;BME280;42236;48.058;10.632;2023-02-22T02:53:36;94538.94;;;1.33;78.73
56330;BME280;42236;48.058;10.632;2023-02-22T02:56:23;94527.34;;;1.28;78.57
56330;BME280;42236;48.058;10.632;2023-02-22T02:59:32;94521.00;;;1.24;79.68
56330;BME280;42236;48.058;10.632;2023-02-22T03:05:49;94523.59;;;1.30;79.05
56330;BME280;42236;48.058;10.632;2023-02-22T03:08:43;94519.88;;;1.31;78.69
56330;BME280;42236;48.058;10.632;2023-02-22T03:11:37;94510.88;;;1.26;79.36
56330;BME280;42236;48.058;10.632;2023-02-22T03:14:53;94508.22;;;1.26;79.48
56330;BME280;42236;48.058;10.632;2023-02-22T03:17:44;94512.19;;;1.29;78.50
56330;BME280;42236;48.058;10.632;2023-02-22T03:20:46;94507.66;;;1.30;78.16
56330;BME280;42236;48.058;10.632;2023-02-22T03:23:37;94504.28;;;1.24;78.51
56330;BME280;42236;48.058;10.632;2023-02-22T03:26:34;94494.75;;;1.18;78.18
56330;BME280;42236;48.058;10.632;2023-02-22T03:29:22;94500.94;;;1.13;78.16
56330;BME280;42236;48.058;10.632;2023-02-22T03:32:14;94493.53;;;1.10;77.78
56330;BME280;42236;48.058;10.632;2023-02-22T03:35:18;94498.91;;;1.05;77.86
56330;BME280;42236;48.058;10.632;2023-02-22T03:38:10;94497.94;;;0.96;78.95
56330;BME280;42236;48.058;10.632;2023-02-22T03:41:00;94486.88;;;0.89;79.98
56330;BME280;42236;48.058;10.632;2023-02-22T03:43:49;94484.50;;;0.87;79.70
56330;BME280;42236;48.058;10.632;2023-02-22T03:46:39;94481.56;;;0.89;79.94
56330;BME280;42236;48.058;10.632;2023-02-22T03:49:40;94478.63;;;0.90;79.59
56330;BME280;42236;48.058;10.632;2023-02-22T03:52:27;94480.19;;;0.91;79.27
56330;BME280;42236;48.058;10.632;2023-02-22T03:55:14;94473.03;;;0.92;79.39
56330;BME280;42236;48.058;10.632;2023-02-22T03:58:06;94467.50;;;0.88;79.88
56330;BME280;42236;48.058;10.632;2023-02-22T04:00:53;94475.22;;;0.84;79.81
56330;BME280;42236;48.058;10.632;2023-02-22T04:03:39;94473.66;;;0.83;79.62
56330;BME280;42236;48.058;10.632;2023-02-22T04:06:27;94469.97;;;0.79;79.67
56330;BME280;42236;48.058;10.632;2023-02-22T04:09:13;94469.50;;;0.72;79.74
56330;BME280;42236;48.058;10.632;2023-02-22T04:11:59;94473.53;;;0.70;79.15
56330;BME280;42236;48.058;10.632;2023-02-22T04:14:45;94478.63;;;0.66;78.87
56330;BME280;42236;48.058;10.632;2023-02-22T04:17:31;94474.94;;;0.62;79.24
56330;BME280;42236;48.058;10.632;2023-02-22T04:20:17;94476.91;;;0.51;79.90
56330;BME280;42236;48.058;10.632;2023-02-22T04:23:04;94463.19;;;0.44;80.77
56330;BME280;42236;48.058;10.632;2023-02-22T04:25:50;94467.75;;;0.38;80.16
56330;BME280;42236;48.058;10.632;2023-02-22T04:28:35;94473.59;;;0.35;80.53
56330;BME280;42236;48.058;10.632;2023-02-22T04:31:21;94470.16;;;0.35;79.64
56330;BME280;42236;48.058;10.632;2023-02-22T04:34:07;94471.75;;;0.36;80.00
56330;BME280;42236;48.058;10.632;2023-02-22T04:36:52;94473.88;;;0.34;80.32
56330;BME280;42236;48.058;10.632;2023-02-22T04:39:38;94471.56;;;0.27;80.30
56330;BME280;42236;48.058;10.632;2023-02-22T04:42:23;94471.09;;;0.20;80.62
56330;BME280;42236;48.058;10.632;2023-02-22T04:45:10;94463.72;;;0.12;80.94
56330;BME280;42236;48.058;10.632;2023-02-22T04:47:55;94467.69;;;0.14;80.70
56330;BME280;42236;48.058;10.632;2023-02-22T04:50:41;94464.53;;;0.12;81.17
56330;BME280;42236;48.058;10.632;2023-02-22T04:53:27;94466.91;;;0.14;81.71
56330;BME280;42236;48.058;10.632;2023-02-22T04:56:13;94456.75;;;0.21;80.67
56330;BME280;42236;48.058;10.632;2023-02-22T04:58:58;94461.50;;;0.24;80.48
56330;BME280;42236;48.058;10.632;2023-02-22T05:01:45;94455.66;;;0.27;80.38
56330;BME280;42236;48.058;10.632;2023-02-22T05:04:30;94455.88;;;0.31;80.24
56330;BME280;42236;48.058;10.632;2023-02-22T05:07:16;94455.88;;;0.31;80.33
56330;BME280;42236;48.058;10.632;2023-02-22T05:10:02;94452.44;;;0.30;80.29
56330;BME280;42236;48.058;10.632;2023-02-22T05:12:48;94450.31;;;0.32;80.33
56330;BME280;42236;48.058;10.632;2023-02-22T05:15:34;94457.47;;;0.32;80.25
56330;BME280;42236;48.058;10.632;2023-02-22T05:18:19;94450.81;;;0.34;79.73
56330;BME280;42236;48.058;10.632;2023-02-22T05:21:05;94446.50;;;0.38;79.39
56330;BME280;42236;48.058;10.632;2023-02-22T05:23:51;94442.22;;;0.42;79.32
56330;BME280;42236;48.058;10.632;2023-02-22T05:26:37;94446.44;;;0.49;78.79
56330;BME280;42236;48.058;10.632;2023-02-22T05:29:22;94446.91;;;0.51;78.81
56330;BME280;42236;48.058;10.632;2023-02-22T05:32:08;94449.09;;;0.49;78.74
56330;BME280;42236;48.058;10.632;2023-02-22T05:34:54;94443.25;;;0.47;78.17
56330;BME280;42236;48.058;10.632;2023-02-22T05:37:39;94442.22;;;0.42;78.55
56330;BME280;42236;48.058;10.632;2023-02-22T05:40:27;94444.16;;;0.37;78.75
56330;BME280;42236;48.058;10.632;2023-02-22T05:43:14;94439.16;;;0.30;79.11
56330;BME280;42236;48.058;10.632;2023-02-22T05:46:00;94434.44;;;0.27;79.28
56330;BME280;42236;48.058;10.632;2023-02-22T05:48:45;94439.75;;;0.27;79.02
56330;BME280;42236;48.058;10.632;2023-02-22T05:51:31;94435.50;;;0.26;78.91
56330;BME280;42236;48.058;10.632;2023-02-22T05:54:17;94438.38;;;0.30;78.71
56330;BME280;42236;48.058;10.632;2023-02-22T05:57:03;94430.13;;;0.31;78.31
56330;BME280;42236;48.058;10.632;2023-02-22T05:59:49;94434.44;;;0.27;78.13
56330;BME280;42236;48.058;10.632;2023-02-22T06:02:34;94433.91;;;0.25;78.23
56330;BME280;42236;48.058;10.632;2023-02-22T06:05:20;94434.97;;;0.24;78.61
56330;BME280;42236;48.058;10.632;2023-02-22T06:08:06;94442.94;;;0.24;78.08
56330;BME280;42236;48.058;10.632;2023-02-22T06:10:52;94441.34;;;0.23;77.99
56330;BME280;42236;48.058;10.632;2023-02-22T06:13:38;94447.75;;;0.22;78.17
56330;BME280;42236;48.058;10.632;2023-02-22T06:16:24;94444.84;;;0.18;77.97
56330;BME280;42236;48.058;10.632;2023-02-22T06:19:10;94446.72;;;0.18;78.01
56330;BME280;42236;48.058;10.632;2023-02-22T06:21:56;94451.00;;;0.14;78.26
56330;BME280;42236;48.058;10.632;2023-02-22T06:24:44;94449.13;;;0.14;78.14
56330;BME280;42236;48.058;10.632;2023-02-22T06:27:31;94454.94;;;0.16;78.21
56330;BME280;42236;48.058;10.632;2023-02-22T06:30:20;94457.31;;;0.18;78.20
56330;BME280;42236;48.058;10.632;2023-02-22T06:33:06;94457.84;;;0.20;78.11
56330;BME280;42236;48.058;10.632;2023-02-22T06:35:51;94448.28;;;0.19;78.16
56330;BME280;42236;48.058;10.632;2023-02-22T06:38:37;94453.06;;;0.22;78.29
56330;BME280;42236;48.058;10.632;2023-02-22T06:41:23;94457.28;;;0.23;78.74
56330;BME280;42236;48.058;10.632;2023-02-22T06:44:09;94459.94;;;0.23;79.29
56330;BME280;42236;48.058;10.632;2023-02-22T06:46:55;94454.06;;;0.26;78.92
56330;BME280;42236;48.058;10.632;2023-02-22T06:49:41;94459.88;;;0.28;79.55
56330;BME280;42236;48.058;10.632;2023-02-22T06:52:26;94463.84;;;0.31;79.56
56330;BME280;42236;48.058;10.632;2023-02-22T06:55:16;94460.91;;;0.32;79.48
56330;BME280;42236;48.058;10.632;2023-02-22T06:58:03;94473.59;;;0.35;79.30
56330;BME280;42236;48.058;10.632;2023-02-22T07:00:49;94462.22;;;0.35;79.71
56330;BME280;42236;48.058;10.632;2023-02-22T07:03:35;94467.25;;;0.36;79.28
56330;BME280;42236;48.058;10.632;2023-02-22T07:06:21;94473.03;;;0.38;79.38
56330;BME280;42236;48.058;10.632;2023-02-22T07:09:06;94463.47;;;0.42;79.51
56330;BME280;42236;48.058;10.632;2023-02-22T07:11:52;94472.72;;;0.45;79.86
56330;BME280;42236;48.058;10.632;2023-02-22T07:14:38;94471.38;;;0.48;79.97
56330;BME280;42236;48.058;10.632;2023-02-22T07:17:23;94471.31;;;0.53;80.05
56330;BME280;42236;48.058;10.632;2023-02-22T07:20:09;94465.94;;;0.58;79.99
56330;BME280;42236;48.058;10.632;2023-02-22T07:22:55;94472.00;;;0.63;80.19
56330;BME280;42236;48.058;10.632;2023-02-22T07:25:41;94471.97;;;0.69;79.87
56330;BME280;42236;48.058;10.632;2023-02-22T07:28:28;94464.16;;;0.77;80.16
56330;BME280;42236;48.058;10.632;2023-02-22T07:31:14;94463.03;;;0.83;80.26
56330;BME280;42236;48.058;10.632;2023-02-22T07:34:00;94466.66;;;0.93;80.27
56330;BME280;42236;48.058;10.632;2023-02-22T07:36:45;94456.47;;;1.00;80.29
56330;BME280;42236;48.058;10.632;2023-02-22T07:39:31;94457.69;;;1.08;80.73
56330;BME280;42236;48.058;10.632;2023-02-22T07:42:18;94458.66;;;1.17;80.40
56330;BME280;42236;48.058;10.632;2023-02-22T07:45:03;94458.78;;;1.25;80.65
56330;BME280;42236;48.058;10.632;2023-02-22T07:47:50;94459.47;;;1.36;80.41
56330;BME280;42236;48.058;10.632;2023-02-22T07:50:35;94458.75;;;1.49;80.11
56330;BME280;42236;48.058;10.632;2023-02-22T07:53:27;94458.31;;;1.61;80.32
56330;BME280;42236;48.058;10.632;2023-02-22T07:56:14;94458.66;;;1.74;79.70
56330;BME280;42236;48.058;10.632;2023-02-22T07:59:00;94458.72;;;1.87;80.18
56330;BME280;42236;48.058;10.632;2023-02-22T08:01:48;94453.47;;;2.01;79.63
56330;BME280;42236;48.058;10.632;2023-02-22T08:04:34;94453.53;;;2.15;79.33
56330;BME280;42236;48.058;10.632;2023-02-22T08:07:20;94454.03;;;2.31;78.71
56330;BME280;42236;48.058;10.632;2023-02-22T08:10:06;94450.03;;;2.47;79.18
56330;BME280;42236;48.058;10.632;2023-02-22T08:12:54;94449.25;;;2.61;78.64
56330;BME280;42236;48.058;10.632;2023-02-22T08:15:41;94453.22;;;2.77;78.17
56330;BME280;42236;48.058;10.632;2023-02-22T08:18:28;94449.78;;;2.90;78.23
56330;BME280;42236;48.058;10.632;2023-02-22T08:21:15;94443.03;;;3.07;77.95
56330;BME280;42236;48.058;10.632;2023-02-22T08:24:01;94451.53;;;3.23;77.58
56330;BME280;42236;48.058;10.632;2023-02-22T08:26:46;94444.47;;;3.40;78.02
56330;BME280;42236;48.058;10.632;2023-02-22T08:29:32;94445.13;;;3.60;77.47
56330;BME280;42236;48.058;10.632;2023-02-22T08:32:18;94449.72;;;3.82;77.68
56330;BME280;42236;48.058;10.632;2023-02-22T08:35:05;94444.19;;;4.01;77.05
56330;BME280;42236;48.058;10.632;2023-02-22T08:37:53;94442.13;;;4.20;76.88
56330;BME280;42236;48.058;10.632;2023-02-22T08:40:40;94441.13;;;4.39;76.41
56330;BME280;42236;48.058;10.632;2023-02-22T08:43:25;94435.41;;;4.54;76.18
56330;BME280;42236;48.058;10.632;2023-02-22T08:46:11;94441.91;;;4.70;76.25
56330;BME280;42236;48.058;10.632;2023-02-22T08:48:57;94435.06;;;4.87;76.20
56330;BME280;42236;48.058;10.632;2023-02-22T08:51:42;94435.47;;;5.03;76.16
56330;BME280;42236;48.058;10.632;2023-02-22T08:54:28;94435.66;;;5.15;76.15
56330;BME280;42236;48.058;10.632;2023-02-22T08:57:14;94431.28;;;5.28;75.86
56330;BME280;42236;48.058;10.632;2023-02-22T09:00:03;94441.50;;;5.43;75.82
56330;BME280;42236;48.058;10.632;2023-02-22T09:03:02;94445.97;;;5.56;75.23
56330;BME280;42236;48.058;10.632;2023-02-22T09:05:48;94435.41;;;5.69;74.84
56330;BME280;42236;48.058;10.632;2023-02-22T09:08:33;94438.75;;;5.83;74.57
56330;BME280;42236;48.058;10.632;2023-02-22T09:11:19;94436.72;;;5.97;74.61
56330;BME280;42236;48.058;10.632;2023-02-22T09:14:05;94439.53;;;6.10;74.09
56330;BME280;42236;48.058;10.632;2023-02-22T09:16:53;94442.06;;;6.24;73.98
56330;BME280;42236;48.058;10.632;2023-02-22T09:19:39;94441.56;;;6.39;74.02
56330;BME280;42236;48.058;10.632;2023-02-22T09:22:24;94443.25;;;6.52;73.00
56330;BME280;42236;48.058;10.632;2023-02-22T09:25:11;94447.50;;;6.62;72.94
56330;BME280;42236;48.058;10.632;2023-02-22T09:27:57;94440.66;;;6.73;72.84
56330;BME280;42236;48.058;10.632;2023-02-22T09:30:42;94434.50;;;6.81;72.70
56330;BME280;42236;48.058;10.632;2023-02-22T09:33:31;94439.50;;;6.92;72.48
56330;BME280;42236;48.058;10.632;2023-02-22T09:36:25;94433.13;;;7.05;72.62
56330;BME280;42236;48.058;10.632;2023-02-22T09:39:12;94433.38;;;7.21;72.47
56330;BME280;42236;48.058;10.632;2023-02-22T09:42:15;94433.59;;;7.37;72.12
56330;BME280;42236;48.058;10.632;2023-02-22T09:48:21;94433.59;;;7.66;71.42
56330;BME280;42236;48.058;10.632;2023-02-22T09:51:14;94429.84;;;7.80;70.77
56330;BME280;42236;48.058;10.632;2023-02-22T09:54:05;94425.00;;;7.94;70.39
56330;BME280;42236;48.058;10.632;2023-02-22T09:56:57;94422.38;;;8.06;69.65
56330;BME280;42236;48.058;10.632;2023-02-22T10:00:05;94418.84;;;8.15;68.81
56330;BME280;42236;48.058;10.632;2023-02-22T10:06:16;94406.47;;;8.34;67.20
56330;BME280;42236;48.058;10.632;2023-02-22T10:09:05;94409.13;;;8.43;67.36
56330;BME280;42236;48.058;10.632;2023-02-22T10:11:58;94414.84;;;8.54;66.47
56330;BME280;42236;48.058;10.632;2023-02-22T10:17:56;94407.28;;;8.81;62.85
56330;BME280;42236;48.058;10.632;2023-02-22T10:27:16;94403.72;;;9.26;64.51
56330;BME280;42236;48.058;10.632;2023-02-22T10:30:15;94405.16;;;9.35;60.49
56330;BME280;42236;48.058;10.632;2023-02-22T10:35:59;94398.38;;;9.66;62.51
56330;BME280;42236;48.058;10.632;2023-02-22T10:38:55;94387.78;;;9.73;58.76
56330;BME280;42236;48.058;10.632;2023-02-22T10:41:48;94395.84;;;9.86;61.00
56330;BME280;42236;48.058;10.632;2023-02-22T10:44:35;94396.66;;;9.86;60.75
56330;BME280;42236;48.058;10.632;2023-02-22T10:47:28;94399.19;;;9.95;61.17
56330;BME280;42236;48.058;10.632;2023-02-22T10:50:14;94393.66;;;10.03;60.96
56330;BME280;42236;48.058;10.632;2023-02-22T10:53:00;94391.94;;;10.11;61.10
56330;BME280;42236;48.058;10.632;2023-02-22T10:56:18;94390.47;;;10.14;58.72
56330;BME280;42236;48.058;10.632;2023-02-22T10:59:36;94389.13;;;10.20;59.64
56330;BME280;42236;48.058;10.632;2023-02-22T11:02:48;94379.31;;;10.28;60.72
56330;BME280;42236;48.058;10.632;2023-02-22T11:05:39;94380.31;;;10.35;60.75
56330;BME280;42236;48.058;10.632;2023-02-22T11:08:35;94385.97;;;10.46;60.56
56330;BME280;42236;48.058;10.632;2023-02-22T11:11:46;94373.56;;;10.57;60.16
56330;BME280;42236;48.058;10.632;2023-02-22T11:14:32;94383.50;;;10.69;60.23
56330;BME280;42236;48.058;10.632;2023-02-22T11:17:48;94377.94;;;10.78;58.87
56330;BME280;42236;48.058;10.632;2023-02-22T11:20:36;94372.00;;;10.88;59.83
56330;BME280;42236;48.058;10.632;2023-02-22T11:23:23;94366.97;;;11.02;59.89
56330;BME280;42236;48.058;10.632;2023-02-22T11:29:45;94360.97;;;11.44;56.62
56330;BME280;42236;48.058;10.632;2023-02-22T11:32:35;94358.66;;;11.62;55.86
56330;BME280;42236;48.058;10.632;2023-02-22T11:35:58;94355.31;;;11.69;53.12
56330;BME280;42236;48.058;10.632;2023-02-22T11:39:03;94347.06;;;11.81;53.94
56330;BME280;42236;48.058;10.632;2023-02-22T11:42:13;94348.97;;;11.97;53.95
56330;BME280;42236;48.058;10.632;2023-02-22T11:46:33;94338.72;;;12.06;50.58
56330;BME280;42236;48.058;10.632;2023-02-22T11:53:02;94333.00;;;12.30;51.00
56330;BME280;42236;48.058;10.632;2023-02-22T12:00:11;94323.84;;;12.38;48.80
56330;BME280;42236;48.058;10.632;2023-02-22T12:40:23;94314.19;;;12.60;53.31
56330;BME280;42236;48.058;10.632;2023-02-22T12:47:33;94310.47;;;12.46;53.74
56330;BME280;42236;48.058;10.632;2023-02-22T12:50:26;94305.59;;;12.55;53.91
56330;BME280;42236;48.058;10.632;2023-02-22T12:53:34;94297.25;;;12.64;53.26
56330;BME280;42236;48.058;10.632;2023-02-22T12:56:56;94300.78;;;12.68;53.38
56330;BME280;42236;48.058;10.632;2023-02-22T13:08:01;94286.81;;;12.89;50.67
56330;BME280;42236;48.058;10.632;2023-02-22T13:23:05;94271.34;;;13.42;51.40
56330;BME280;42236;48.058;10.632;2023-02-22T13:26:46;94261.00;;;13.52;51.07
56330;BME280;42236;48.058;10.632;2023-02-22T13:29:56;94263.53;;;13.68;52.25
56330;BME280;42236;48.058;10.632;2023-02-22T13:50:25;94266.06;;;13.53;51.02
56330;BME280;42236;48.058;10.632;2023-02-22T13:53:18;94263.31;;;13.50;52.38
56330;BME280;42236;48.058;10.632;2023-02-22T14:10:44;94259.25;;;13.66;51.27
56330;BME280;42236;48.058;10.632;2023-02-22T14:18:23;94248.22;;;13.49;52.02
56330;BME280;42236;48.058;10.632;2023-02-22T14:22:01;94249.56;;;13.35;52.68
56330;BME280;42236;48.058;10.632;2023-02-22T14:25:40;94246.41;;;13.30;52.48
56330;BME280;42236;48.058;10.632;2023-02-22T14:44:19;94255.97;;;13.84;53.04
56330;BME280;42236;48.058;10.632;2023-02-22T14:59:17;94260.78;;;13.64;52.12
56330;BME280;42236;48.058;10.632;2023-02-22T15:02:48;94250.19;;;13.55;51.72
56330;BME280;42236;48.058;10.632;2023-02-22T15:06:31;94257.84;;;13.46;52.22
56330;BME280;42236;48.058;10.632;2023-02-22T15:17:57;94256.28;;;13.18;52.90
56330;BME280;42236;48.058;10.632;2023-02-22T15:21:13;94258.56;;;13.16;53.14
56330;BME280;42236;48.058;10.632;2023-02-22T15:24:26;94250.03;;;13.14;54.01
56330;BME280;42236;48.058;10.632;2023-02-22T15:27:22;94258.97;;;13.15;54.72
56330;BME280;42236;48.058;10.632;2023-02-22T15:37:34;94259.31;;;13.13;54.61
56330;BME280;42236;48.058;10.632;2023-02-22T15:40:40;94258.13;;;13.11;55.52
56330;BME280;42236;48.058;10.632;2023-02-22T15:43:58;94252.94;;;13.02;54.50
56330;BME280;42236;48.058;10.632;2023-02-22T15:50:33;94250.78;;;12.85;55.86
56330;BME280;42236;48.058;10.632;2023-02-22T15:53:54;94257.97;;;12.73;55.88
56330;BME280;42236;48.058;10.632;2023-02-22T16:00:02;94264.59;;;12.53;56.77
56330;BME280;42236;48.058;10.632;2023-02-22T16:03:07;94254.50;;;12.50;56.89
56330;BME280;42236;48.058;10.632;2023-02-22T16:05:55;94258.28;;;12.45;57.25
56330;BME280;42236;48.058;10.632;2023-02-22T16:09:07;94256.56;;;12.37;55.78
56330;BME280;42236;48.058;10.632;2023-02-22T16:15:24;94259.34;;;12.17;57.75
56330;BME280;42236;48.058;10.632;2023-02-22T16:18:31;94264.44;;;12.00;57.84
56330;BME280;42236;48.058;10.632;2023-02-22T16:21:39;94267.56;;;11.82;58.36
56330;BME280;42236;48.058;10.632;2023-02-22T16:24:34;94277.03;;;11.72;58.37
56330;BME280;42236;48.058;10.632;2023-02-22T16:27:22;94269.13;;;11.64;58.71
56330;BME280;42236;48.058;10.632;2023-02-22T16:30:28;94265.84;;;11.54;58.19
56330;BME280;42236;48.058;10.632;2023-02-22T16:33:17;94267.56;;;11.43;59.07
56330;BME280;42236;48.058;10.632;2023-02-22T16:36:06;94279.63;;;11.30;59.58
56330;BME280;42236;48.058;10.632;2023-02-22T16:38:52;94275.22;;;11.22;59.65
56330;BME280;42236;48.058;10.632;2023-02-22T16:41:46;94270.09;;;11.17;59.57
56330;BME280;42236;48.058;10.632;2023-02-22T16:44:41;94281.19;;;11.12;59.35
56330;BME280;42236;48.058;10.632;2023-02-22T16:47:27;94278.03;;;11.09;59.77
56330;BME280;42236;48.058;10.632;2023-02-22T16:50:13;94279.44;;;11.03;59.80
56330;BME280;42236;48.058;10.632;2023-02-22T16:52:59;94280.84;;;10.97;59.88
56330;BME280;42236;48.058;10.632;2023-02-22T16:55:46;94276.41;;;10.89;60.23
56330;BME280;42236;48.058;10.632;2023-02-22T16:58:35;94287.47;;;10.84;60.17
56330;BME280;42236;48.058;10.632;2023-02-22T17:01:22;94286.19;;;10.78;60.21
56330;BME280;42236;48.058;10.632;2023-02-22T17:07:19;94293.94;;;10.63;60.63
56330;BME280;42236;48.058;10.632;2023-02-22T17:10:14;94289.50;;;10.55;60.76
56330;BME280;42236;48.058;10.632;2023-02-22T17:13:01;94293.59;;;10.49;61.09
56330;BME280;42236;48.058;10.632;2023-02-22T17:15:47;94293.75;;;10.40;61.33
56330;BME280;42236;48.058;10.632;2023-02-22T17:18:33;94297.84;;;10.34;61.45
56330;BME280;42236;48.058;10.632;2023-02-22T17:21:19;94293.50;;;10.30;61.64
56330;BME280;42236;48.058;10.632;2023-02-22T17:24:11;94302.94;;;10.23;61.85
56330;BME280;42236;48.058;10.632;2023-02-22T17:27:00;94306.59;;;10.15;62.05
56330;BME280;42236;48.058;10.632;2023-02-22T17:29:46;94305.97;;;10.06;62.38
56330;BME280;42236;48.058;10.632;2023-02-22T17:32:39;94309.94;;;9.96;62.79
56330;BME280;42236;48.058;10.632;2023-02-22T17:35:25;94311.53;;;9.85;63.07
56330;BME280;42236;48.058;10.632;2023-02-22T17:38:12;94313.97;;;9.74;63.23
56330;BME280;42236;48.058;10.632;2023-02-22T17:41:05;94321.41;;;9.65;63.78
56330;BME280;42236;48.058;10.632;2023-02-22T17:43:51;94315.34;;;9.56;63.81
56330;BME280;42236;48.058;10.632;2023-02-22T17:46:38;94317.97;;;9.52;63.86
56330;BME280;42236;48.058;10.632;2023-02-22T17:49:25;94320.53;;;9.49;63.85
56330;BME280;42236;48.058;10.632;2023-02-22T17:52:10;94315.16;;;9.49;63.93
56330;BME280;42236;48.058;10.632;2023-02-22T17:54:59;94317.06;;;9.48;63.72
56330;BME280;42236;48.058;10.632;2023-02-22T17:57:46;94323.91;;;9.46;63.71
56330;BME280;42236;48.058;10.632;2023-02-22T18:00:35;94324.59;;;9.43;63.90
56330;BME280;42236;48.058;10.632;2023-02-22T18:03:21;94326.41;;;9.38;63.96
56330;BME280;42236;48.058;10.632;2023-02-22T18:06:15;94320.34;;;9.29;64.77
56330;BME280;42236;48.058;10.632;2023-02-22T18:09:01;94322.84;;;9.22;64.47
56330;BME280;42236;48.058;10.632;2023-02-22T18:11:54;94317.00;;;9.20;64.43
56330;BME280;42236;48.058;10.632;2023-02-22T18:14:40;94324.63;;;9.18;64.44
56330;BME280;42236;48.058;10.632;2023-02-22T18:17:25;94326.09;;;9.15;64.63
56330;BME280;42236;48.058;10.632;2023-02-22T18:20:13;94322.19;;;9.13;64.78
56330;BME280;42236;48.058;10.632;2023-02-22T18:22:59;94316.69;;;9.09;65.01
56330;BME280;42236;48.058;10.632;2023-02-22T18:25:46;94319.72;;;9.08;64.96
56330;BME280;42236;48.058;10.632;2023-02-22T18:28:35;94318.03;;;9.03;65.10